Time;durP1;ratioP1;P1;durP2;ratioP2;P2;SDS_P1;SDS_P2;PMS_P1;PMS_P2;Temp;Humidity;BMP_temperature;BMP_pressure;BME280_temperature;BME280_humidity;BME280_pressure;Samples;Min_cycle;Max_cycle;Signal;HPM_P1;HPM_P2
2023/04/30 00:02:12;;;;;;;11.93;8.90;;;13.20;99.90;;;;;;5031762;28;20049;-77
2023/04/30 00:04:38;;;;;;;12.60;8.50;;;13.20;99.90;;;;;;5018658;28;20513;-77
2023/04/30 00:07:05;;;;;;;11.00;8.57;;;13.20;99.90;;;;;;5024498;28;20045;-77
2023/04/30 00:09:32;;;;;;;11.10;7.95;;;13.10;99.90;;;;;;5022099;28;20053;-78
2023/04/30 00:11:58;;;;;;;16.90;9.07;;;13.10;99.90;;;;;;5025923;28;20065;-78
2023/04/30 00:14:25;;;;;;;9.77;7.47;;;13.10;99.90;;;;;;5017780;28;20058;-77
2023/04/30 00:16:52;;;;;;;13.63;9.75;;;13.10;99.90;;;;;;5024843;28;20057;-77
2023/04/30 00:19:18;;;;;;;12.20;8.75;;;13.10;99.90;;;;;;5025264;28;20052;-78
2023/04/30 00:21:45;;;;;;;13.45;8.75;;;13.10;99.90;;;;;;5027815;28;20049;-78
2023/04/30 00:24:12;;;;;;;12.68;9.05;;;13.10;99.90;;;;;;5026948;28;20421;-78
2023/04/30 00:26:38;;;;;;;11.77;8.95;;;13.10;99.90;;;;;;5026967;28;20046;-78
2023/04/30 00:29:05;;;;;;;12.07;9.23;;;13.10;99.90;;;;;;5023455;28;20417;-79
2023/04/30 00:31:32;;;;;;;11.50;8.82;;;13.00;99.90;;;;;;5029197;28;20055;-77
2023/04/30 00:33:59;;;;;;;15.73;10.00;;;13.00;99.90;;;;;;5024181;28;20041;-78
2023/04/30 00:36:25;;;;;;;11.85;9.18;;;12.90;99.90;;;;;;5005505;28;20055;-78
2023/04/30 00:38:52;;;;;;;11.68;8.32;;;12.90;99.90;;;;;;5022333;28;20497;-77
2023/04/30 00:41:21;;;;;;;12.25;9.18;;;12.80;99.90;;;;;;5021523;28;20044;-78
2023/04/30 00:43:48;;;;;;;17.17;9.05;;;12.70;99.90;;;;;;5022488;28;20395;-77
2023/04/30 00:46:14;;;;;;;13.65;9.63;;;12.70;99.90;;;;;;5003792;28;20076;-77
2023/04/30 00:48:41;;;;;;;12.52;8.55;;;12.60;99.90;;;;;;5027758;28;20093;-78
2023/04/30 00:51:08;;;;;;;13.07;9.25;;;12.60;99.90;;;;;;5022897;28;20045;-77
2023/04/30 00:53:36;;;;;;;15.20;9.82;;;12.50;99.90;;;;;;5027260;28;20056;-77
2023/04/30 00:56:04;;;;;;;14.85;9.23;;;12.50;99.90;;;;;;5025698;28;20054;-78
2023/04/30 00:58:31;;;;;;;13.27;9.18;;;12.40;99.90;;;;;;5024486;28;20054;-77
2023/04/30 01:00:58;;;;;;;11.80;8.40;;;12.40;99.90;;;;;;5025963;28;20045;-77
2023/04/30 01:03:25;;;;;;;10.55;8.38;;;12.40;99.90;;;;;;5021666;28;20489;-78
2023/04/30 01:05:52;;;;;;;13.93;8.63;;;12.30;99.90;;;;;;5022863;28;20046;-77
2023/04/30 01:08:19;;;;;;;14.82;8.75;;;12.30;99.90;;;;;;5025820;28;20416;-77
2023/04/30 01:11:10;;;;;;;11.73;8.50;;;12.20;99.90;;;;;;5016562;28;20061;-76
2023/04/30 01:13:44;;;;;;;13.10;8.63;;;12.20;99.90;;;;;;5023318;28;20056;-77
2023/04/30 01:16:21;;;;;;;13.00;8.93;;;12.20;99.90;;;;;;5028463;28;20056;-77
2023/04/30 01:18:53;;;;;;;13.43;9.20;;;12.20;99.90;;;;;;5026379;28;20045;-78
2023/04/30 01:21:20;;;;;;;15.05;8.80;;;12.20;99.90;;;;;;5019393;28;20049;-77
2023/04/30 01:24:11;;;;;;;11.73;8.68;;;12.30;99.90;;;;;;5027822;28;20048;-77
2023/04/30 01:26:41;;;;;;;14.32;8.45;;;12.30;99.90;;;;;;5021064;28;20072;-77
2023/04/30 01:29:11;;;;;;;10.60;7.85;;;12.30;99.90;;;;;;5031148;28;20502;-77
2023/04/30 01:31:37;;;;;;;13.52;8.02;;;12.30;99.90;;;;;;5024278;28;20920;-77
2023/04/30 01:34:04;;;;;;;12.05;8.18;;;12.40;99.90;;;;;;5030369;28;20049;-77
2023/04/30 01:36:58;;;;;;;9.27;7.13;;;12.40;99.90;;;;;;5030756;28;20061;-77
2023/04/30 01:39:30;;;;;;;10.52;7.68;;;12.40;99.90;;;;;;5025251;28;20406;-77
2023/04/30 01:42:05;;;;;;;11.05;7.57;;;12.50;99.90;;;;;;5029434;28;20568;-77
2023/04/30 01:44:47;;;;;;;11.65;6.80;;;12.50;99.90;;;;;;5024525;28;20422;-77
2023/04/30 01:47:33;;;;;;;11.13;7.40;;;12.50;99.90;;;;;;5029083;28;20052;-78
2023/04/30 01:50:23;;;;;;;10.80;7.43;;;12.50;99.90;;;;;;5009744;28;20053;-76
2023/04/30 01:52:57;;;;;;;9.73;7.20;;;12.50;99.90;;;;;;5021155;28;20049;-77
2023/04/30 01:55:31;;;;;;;9.05;6.88;;;12.60;99.90;;;;;;5020407;28;20057;-76
2023/04/30 01:58:00;;;;;;;12.45;8.27;;;12.60;99.90;;;;;;5007884;28;20064;-77
2023/04/30 02:00:29;;;;;;;10.98;7.65;;;12.60;99.90;;;;;;5024750;28;20498;-77
2023/04/30 02:02:56;;;;;;;10.35;7.45;;;12.60;99.90;;;;;;5024274;28;20049;-76
2023/04/30 02:05:23;;;;;;;11.35;7.05;;;12.70;99.90;;;;;;5028244;28;20428;-77
2023/04/30 02:07:51;;;;;;;13.93;8.68;;;12.70;99.90;;;;;;5026050;28;20521;-78
2023/04/30 02:10:20;;;;;;;10.43;7.95;;;12.60;99.90;;;;;;5028659;28;20525;-76
2023/04/30 02:12:47;;;;;;;13.88;7.95;;;12.70;99.90;;;;;;5026562;28;20049;-78
2023/04/30 02:15:14;;;;;;;12.43;8.00;;;12.70;99.90;;;;;;5022847;28;20517;-77
2023/04/30 02:17:41;;;;;;;12.10;8.18;;;12.70;99.90;;;;;;5028251;28;20057;-77
2023/04/30 02:20:09;;;;;;;11.35;7.60;;;12.70;99.90;;;;;;5023236;28;20053;-76
2023/04/30 02:22:36;;;;;;;9.48;7.13;;;12.70;99.90;;;;;;5023338;28;20046;-76
2023/04/30 02:25:03;;;;;;;8.73;6.88;;;12.70;99.90;;;;;;5021758;28;20046;-76
2023/04/30 02:27:31;;;;;;;10.25;7.63;;;12.80;99.90;;;;;;5020977;28;20480;-77
2023/04/30 02:29:59;;;;;;;11.68;7.53;;;12.80;99.90;;;;;;5029625;28;20054;-76
2023/04/30 02:32:25;;;;;;;8.88;7.22;;;12.70;99.90;;;;;;5021917;28;20053;-79
2023/04/30 02:34:52;;;;;;;10.70;7.80;;;12.80;99.90;;;;;;5021240;28;20054;-77
2023/04/30 02:37:19;;;;;;;11.00;7.45;;;12.80;99.90;;;;;;5024761;28;20054;-79
2023/04/30 02:39:46;;;;;;;9.20;6.82;;;12.80;99.90;;;;;;5033753;28;20068;-79
2023/04/30 02:42:12;;;;;;;9.65;7.20;;;12.80;99.90;;;;;;5029781;28;20062;-79
2023/04/30 02:44:40;;;;;;;15.25;7.40;;;12.80;99.90;;;;;;5029556;28;20041;-79
2023/04/30 02:47:07;;;;;;;9.52;7.43;;;12.80;99.90;;;;;;5028294;28;20128;-79
2023/04/30 02:49:33;;;;;;;9.32;7.20;;;12.80;99.90;;;;;;5025734;28;20342;-77
2023/04/30 02:52:00;;;;;;;11.60;7.60;;;12.80;99.90;;;;;;5013463;28;20058;-79
2023/04/30 02:54:27;;;;;;;10.75;7.32;;;12.80;99.90;;;;;;5024224;28;20082;-79
2023/04/30 02:56:55;;;;;;;10.05;7.97;;;12.80;99.90;;;;;;5025012;28;20456;-76
2023/04/30 02:59:21;;;;;;;10.40;7.15;;;12.80;99.90;;;;;;5025103;28;20058;-76
2023/04/30 03:01:48;;;;;;;10.30;7.40;;;12.80;99.90;;;;;;5015505;28;20050;-76
2023/04/30 03:04:15;;;;;;;12.57;7.63;;;12.80;99.90;;;;;;5028189;28;20045;-77
2023/04/30 03:06:41;;;;;;;12.35;7.63;;;12.80;99.90;;;;;;5016104;28;20053;-75
2023/04/30 03:09:08;;;;;;;10.15;7.35;;;12.80;99.90;;;;;;5030810;28;20050;-76
2023/04/30 03:11:36;;;;;;;11.80;8.68;;;12.80;99.90;;;;;;5019131;28;20056;-75
2023/04/30 03:14:03;;;;;;;16.90;8.63;;;12.80;99.90;;;;;;5026319;28;20402;-76
2023/04/30 03:16:30;;;;;;;10.48;6.85;;;12.80;99.90;;;;;;5022487;28;20046;-78
2023/04/30 03:18:57;;;;;;;10.18;7.22;;;12.80;99.90;;;;;;5026304;28;20079;-77
2023/04/30 03:21:24;;;;;;;9.40;7.30;;;12.80;99.90;;;;;;5026726;28;20046;-78
2023/04/30 03:23:50;;;;;;;10.63;7.88;;;12.80;99.90;;;;;;5025438;28;20064;-77
2023/04/30 03:26:17;;;;;;;12.32;8.50;;;12.80;99.90;;;;;;5026006;28;20045;-79
2023/04/30 03:28:44;;;;;;;13.45;8.23;;;12.80;99.90;;;;;;5026948;28;20050;-78
2023/04/30 03:31:11;;;;;;;10.13;8.70;;;12.80;99.90;;;;;;5021388;28;20056;-77
2023/04/30 03:33:37;;;;;;;12.43;8.15;;;12.80;99.90;;;;;;5030128;28;20132;-77
2023/04/30 03:36:05;;;;;;;11.18;8.23;;;12.80;99.90;;;;;;5016494;28;20477;-78
2023/04/30 03:38:31;;;;;;;12.13;8.35;;;12.80;99.90;;;;;;5025421;28;20050;-77
2023/04/30 03:40:58;;;;;;;12.90;8.52;;;12.80;99.90;;;;;;5002651;28;20050;-78
2023/04/30 03:43:25;;;;;;;12.88;8.25;;;12.70;99.90;;;;;;5025643;28;20484;-77
2023/04/30 03:45:51;;;;;;;12.40;8.63;;;12.70;99.90;;;;;;5021873;28;20493;-78
2023/04/30 03:48:19;;;;;;;13.40;9.05;;;12.70;99.90;;;;;;5013044;28;20539;-77
2023/04/30 03:50:46;;;;;;;12.35;9.23;;;12.70;99.90;;;;;;5024563;28;20403;-78
2023/04/30 03:53:12;;;;;;;14.20;9.07;;;12.70;99.90;;;;;;5025533;28;20044;-78
2023/04/30 03:55:39;;;;;;;13.45;9.32;;;12.60;99.90;;;;;;5027285;28;20096;-78
2023/04/30 03:58:06;;;;;;;12.38;9.07;;;12.70;99.90;;;;;;5028124;28;20137;-77
2023/04/30 04:00:33;;;;;;;10.80;8.35;;;12.70;99.90;;;;;;5022942;28;20050;-78
2023/04/30 04:03:00;;;;;;;13.32;9.18;;;12.70;99.90;;;;;;5028242;28;20052;-77
2023/04/30 04:05:28;;;;;;;11.25;8.68;;;12.70;99.90;;;;;;5024363;28;20053;-77
2023/04/30 04:07:54;;;;;;;12.35;8.52;;;12.70;99.90;;;;;;5027083;28;20514;-77
2023/04/30 04:10:21;;;;;;;11.85;8.70;;;12.70;99.90;;;;;;5023710;28;20044;-77
2023/04/30 04:12:48;;;;;;;15.02;9.07;;;12.60;99.90;;;;;;5019873;28;20045;-77
2023/04/30 04:15:14;;;;;;;12.02;9.38;;;12.70;99.90;;;;;;5023901;28;20048;-77
2023/04/30 04:17:41;;;;;;;14.93;9.27;;;12.70;99.90;;;;;;5020514;28;20049;-77
2023/04/30 04:20:08;;;;;;;10.68;8.15;;;12.70;99.90;;;;;;5027001;28;20085;-77
2023/04/30 04:22:38;;;;;;;12.35;8.38;;;12.70;99.90;;;;;;5021840;28;20108;-76
2023/04/30 04:25:05;;;;;;;11.88;8.10;;;12.70;99.90;;;;;;5027459;28;20133;-76
2023/04/30 04:27:32;;;;;;;10.23;8.45;;;12.70;99.90;;;;;;5022862;28;20509;-78
2023/04/30 04:30:00;;;;;;;12.27;9.30;;;12.60;99.90;;;;;;5016430;28;20072;-78
2023/04/30 04:32:27;;;;;;;11.63;8.75;;;12.60;99.90;;;;;;5025012;28;20042;-78
2023/04/30 04:34:55;;;;;;;12.15;9.65;;;12.60;99.90;;;;;;5023297;28;20061;-78
2023/04/30 04:37:22;;;;;;;12.45;9.55;;;12.60;99.90;;;;;;5028919;28;20055;-77
2023/04/30 04:39:49;;;;;;;14.07;10.30;;;12.60;99.90;;;;;;5022064;28;20045;-75
2023/04/30 04:42:16;;;;;;;11.82;9.13;;;12.60;99.90;;;;;;5030313;28;20044;-77
2023/04/30 04:44:43;;;;;;;14.70;10.30;;;12.60;99.90;;;;;;5021035;28;20046;-77
2023/04/30 04:47:11;;;;;;;17.00;10.38;;;12.60;99.90;;;;;;5020232;28;20053;-76
2023/04/30 04:49:38;;;;;;;16.85;9.88;;;12.70;99.90;;;;;;5024996;28;20042;-77
2023/04/30 04:52:05;;;;;;;15.05;10.13;;;12.70;99.90;;;;;;5022086;28;20045;-77
2023/04/30 04:54:32;;;;;;;13.57;10.00;;;12.70;99.90;;;;;;5031323;28;20072;-77
2023/04/30 04:56:58;;;;;;;15.65;10.15;;;12.70;99.90;;;;;;5023702;28;20050;-78
2023/04/30 04:59:25;;;;;;;19.20;15.55;;;12.70;99.90;;;;;;5034130;28;20053;-77
2023/04/30 05:01:52;;;;;;;19.20;13.70;;;12.70;99.90;;;;;;5030599;28;20041;-77
2023/04/30 05:04:19;;;;;;;17.00;13.05;;;12.70;99.90;;;;;;5034014;28;20128;-78
2023/04/30 05:06:45;;;;;;;17.67;12.55;;;12.70;99.90;;;;;;5028001;28;20084;-78
2023/04/30 05:09:12;;;;;;;18.48;14.07;;;12.70;99.90;;;;;;5029846;28;20063;-77
2023/04/30 05:11:40;;;;;;;29.88;21.55;;;12.70;99.90;;;;;;5012252;28;20042;-77
2023/04/30 05:14:07;;;;;;;23.88;18.15;;;12.70;99.90;;;;;;5031601;28;20052;-78
2023/04/30 05:16:33;;;;;;;24.00;16.98;;;12.70;99.90;;;;;;5026958;28;20079;-78
2023/04/30 05:19:00;;;;;;;19.52;13.55;;;12.70;99.90;;;;;;5059137;22;20041;-74
2023/04/30 05:21:28;;;;;;;17.52;12.27;;;12.70;99.90;;;;;;5035815;28;20132;-75
2023/04/30 05:23:55;;;;;;;15.73;11.82;;;12.70;99.90;;;;;;5041093;28;20095;-77
2023/04/30 05:26:23;;;;;;;20.98;14.02;;;12.70;99.90;;;;;;5037687;28;20041;-77
2023/04/30 05:28:51;;;;;;;19.08;14.50;;;12.70;99.90;;;;;;5037364;28;20099;-78
2023/04/30 05:31:18;;;;;;;21.73;15.13;;;12.70;99.90;;;;;;5033466;28;20053;-77
2023/04/30 05:33:47;;;;;;;23.48;16.70;;;12.70;99.90;;;;;;5035050;28;20046;-77
2023/04/30 05:36:14;;;;;;;26.10;17.38;;;12.70;99.90;;;;;;5037790;28;20522;-77
2023/04/30 05:38:41;;;;;;;23.83;16.50;;;12.80;99.90;;;;;;5017317;28;20050;-77
2023/04/30 05:41:11;;;;;;;23.90;17.33;;;12.80;99.90;;;;;;5035531;28;20071;-77
2023/04/30 05:43:37;;;;;;;23.60;16.42;;;12.90;99.90;;;;;;5035729;28;20413;-77
2023/04/30 05:46:04;;;;;;;26.77;16.75;;;12.90;99.90;;;;;;5036730;28;20057;-77
2023/04/30 05:48:31;;;;;;;23.48;17.00;;;13.00;99.90;;;;;;5027517;28;20505;-77
2023/04/30 05:50:57;;;;;;;22.65;16.38;;;13.00;99.90;;;;;;5033671;28;20041;-77
2023/04/30 05:53:24;;;;;;;23.88;16.70;;;13.00;99.90;;;;;;5039006;28;20041;-76
2023/04/30 05:55:51;;;;;;;25.30;17.77;;;13.00;99.90;;;;;;5036388;28;20048;-77
2023/04/30 05:58:17;;;;;;;29.30;21.95;;;13.00;99.90;;;;;;5040586;28;20084;-76
2023/04/30 06:00:48;;;;;;;29.10;24.13;;;13.10;99.90;;;;;;5037799;28;20049;-77
2023/04/30 06:03:15;;;;;;;27.60;19.33;;;13.10;99.90;;;;;;5037874;28;20045;-77
2023/04/30 06:05:43;;;;;;;20.15;15.27;;;13.10;99.90;;;;;;5033810;28;20080;-77
2023/04/30 06:08:09;;;;;;;20.20;15.32;;;13.20;99.90;;;;;;5035682;28;20386;-77
2023/04/30 06:10:37;;;;;;;23.83;17.55;;;13.10;99.90;;;;;;5037109;28;20049;-77
2023/04/30 06:13:05;;;;;;;24.50;16.48;;;13.10;99.90;;;;;;5034575;28;20042;-77
2023/04/30 06:15:32;;;;;;;19.90;16.10;;;13.20;99.90;;;;;;5035496;28;20053;-77
2023/04/30 06:17:58;;;;;;;19.48;14.77;;;13.20;99.90;;;;;;5037334;28;20073;-77
2023/04/30 06:20:26;;;;;;;20.83;15.80;;;13.30;99.90;;;;;;5033908;28;20037;-77
2023/04/30 06:22:52;;;;;;;20.48;15.95;;;13.40;99.90;;;;;;5036369;28;20042;-77
2023/04/30 06:25:19;;;;;;;17.10;14.38;;;13.50;99.90;;;;;;5019583;28;20044;-77
2023/04/30 06:27:46;;;;;;;27.20;22.17;;;13.50;99.90;;;;;;5034401;28;20084;-78
2023/04/30 06:30:13;;;;;;;21.00;17.00;;;13.60;99.90;;;;;;5038826;28;20048;-77
2023/04/30 06:32:40;;;;;;;20.02;15.48;;;13.60;99.90;;;;;;5034420;28;20056;-77
2023/04/30 06:35:07;;;;;;;19.42;16.10;;;13.70;99.90;;;;;;5040525;28;20414;-77
2023/04/30 06:37:36;;;;;;;19.08;15.55;;;13.80;99.90;;;;;;5016439;28;20049;-78
2023/04/30 06:40:05;;;;;;;21.23;15.55;;;13.90;99.90;;;;;;5039503;28;20042;-77
2023/04/30 06:42:33;;;;;;;17.60;13.02;;;13.90;99.90;;;;;;5016457;28;20046;-77
2023/04/30 06:45:05;;;;;;;17.08;13.55;;;14.00;99.90;;;;;;5036417;28;20052;-77
2023/04/30 06:47:36;;;;;;;20.00;12.95;;;14.10;99.90;;;;;;5015816;28;20053;-77
2023/04/30 06:50:04;;;;;;;19.15;13.93;;;14.10;99.90;;;;;;5016453;28;20052;-77
2023/04/30 06:52:31;;;;;;;17.70;13.18;;;14.10;99.90;;;;;;5034063;28;20052;-78
2023/04/30 06:54:57;;;;;;;18.95;13.43;;;14.20;99.90;;;;;;5034752;28;20047;-77
2023/04/30 06:57:24;;;;;;;18.40;13.63;;;14.10;99.90;;;;;;5033832;28;20041;-77
2023/04/30 06:59:51;;;;;;;16.17;12.88;;;14.20;99.90;;;;;;5017960;28;20049;-77
2023/04/30 07:02:18;;;;;;;19.10;12.63;;;14.00;99.90;;;;;;5031103;28;20565;-76
2023/04/30 07:04:48;;;;;;;16.25;12.05;;;14.00;99.90;;;;;;5033703;28;20128;-77
2023/04/30 07:07:15;;;;;;;18.63;12.93;;;14.10;99.90;;;;;;5032681;28;20099;-77
2023/04/30 07:09:41;;;;;;;16.92;12.55;;;14.10;99.90;;;;;;5037443;28;20572;-77
2023/04/30 07:12:09;;;;;;;17.00;13.50;;;14.00;99.90;;;;;;5034315;28;20057;-77
2023/04/30 07:14:36;;;;;;;16.05;12.20;;;14.00;99.90;;;;;;5037168;28;20049;-77
2023/04/30 07:17:03;;;;;;;16.58;13.10;;;14.10;99.90;;;;;;5030859;28;20049;-77
2023/04/30 07:19:31;;;;;;;16.55;12.98;;;14.10;99.90;;;;;;5028744;28;20767;-76
2023/04/30 07:21:58;;;;;;;15.48;11.13;;;14.10;99.90;;;;;;5017059;28;20041;-76
2023/04/30 07:24:24;;;;;;;15.50;11.35;;;14.00;99.90;;;;;;5032912;28;20412;-76
2023/04/30 07:26:51;;;;;;;15.95;12.50;;;14.10;99.90;;;;;;5034359;28;20037;-76
2023/04/30 07:29:18;;;;;;;14.35;11.38;;;14.10;99.90;;;;;;5015759;28;20052;-77
2023/04/30 07:31:44;;;;;;;14.75;11.32;;;14.20;99.90;;;;;;5019953;28;20049;-76
2023/04/30 07:34:12;;;;;;;14.90;11.80;;;14.30;99.90;;;;;;5016656;28;20052;-77
2023/04/30 07:36:38;;;;;;;16.10;12.82;;;14.30;99.90;;;;;;5035148;28;20060;-77
2023/04/30 07:39:06;;;;;;;18.00;14.13;;;14.40;99.90;;;;;;5018377;28;20508;-78
2023/04/30 07:41:32;;;;;;;16.13;11.95;;;14.40;99.90;;;;;;5033378;28;20049;-77
2023/04/30 07:43:59;;;;;;;15.43;12.45;;;14.50;99.90;;;;;;5031584;28;20054;-77
2023/04/30 07:46:26;;;;;;;16.92;12.27;;;14.50;99.90;;;;;;5033463;28;20045;-77
2023/04/30 07:48:53;;;;;;;14.85;10.18;;;14.50;99.90;;;;;;5035514;28;20045;-77
2023/04/30 07:51:19;;;;;;;12.60;10.35;;;14.60;99.90;;;;;;5019127;28;20041;-77
2023/04/30 07:53:46;;;;;;;18.10;11.15;;;14.70;99.90;;;;;;5028836;28;20052;-78
2023/04/30 07:56:12;;;;;;;14.50;11.15;;;14.80;99.90;;;;;;5027964;28;20048;-77
2023/04/30 07:58:39;;;;;;;14.13;11.38;;;14.90;99.90;;;;;;5012708;28;20038;-76
2023/04/30 08:01:06;;;;;;;13.20;10.80;;;15.00;99.90;;;;;;5026521;28;20048;-77
2023/04/30 08:03:33;;;;;;;14.02;11.10;;;15.00;99.90;;;;;;5030941;28;20060;-77
2023/04/30 08:06:00;;;;;;;13.13;11.23;;;15.10;99.90;;;;;;5033159;28;20160;-77
2023/04/30 08:08:27;;;;;;;16.25;10.98;;;15.20;99.90;;;;;;5033223;28;20050;-77
2023/04/30 08:10:53;;;;;;;12.35;10.00;;;15.20;99.90;;;;;;5031221;28;20045;-76
2023/04/30 08:13:20;;;;;;;11.85;9.63;;;15.30;99.90;;;;;;5021512;28;20424;-76
2023/04/30 08:15:47;;;;;;;13.80;9.63;;;15.30;99.90;;;;;;5021810;28;20060;-77
2023/04/30 08:18:13;;;;;;;12.02;9.18;;;15.30;99.90;;;;;;5006977;28;20055;-77
2023/04/30 08:20:40;;;;;;;12.82;9.57;;;15.40;99.90;;;;;;5027859;28;20052;-77
2023/04/30 08:23:07;;;;;;;14.85;9.88;;;15.50;99.90;;;;;;5029349;28;20132;-77
2023/04/30 08:25:33;;;;;;;11.48;9.00;;;15.50;99.90;;;;;;5010078;28;20044;-77
2023/04/30 08:28:00;;;;;;;12.25;8.98;;;15.60;99.90;;;;;;5030225;28;20048;-77
2023/04/30 08:30:27;;;;;;;11.88;8.88;;;15.70;99.90;;;;;;5025970;28;20045;-76
2023/04/30 08:32:54;;;;;;;11.60;9.23;;;15.80;99.90;;;;;;5012100;28;20045;-74
2023/04/30 08:35:23;;;;;;;10.02;8.60;;;15.90;99.90;;;;;;5025927;28;20047;-76
2023/04/30 08:37:50;;;;;;;12.77;8.55;;;16.00;99.90;;;;;;5027393;28;20182;-78
2023/04/30 08:40:17;;;;;;;10.57;8.70;;;16.10;99.90;;;;;;5030046;28;20081;-77
2023/04/30 08:43:03;;;;;;;10.57;9.00;;;16.10;99.90;;;;;;5013426;28;20045;-77
2023/04/30 08:45:32;;;;;;;11.40;7.82;;;16.20;99.90;;;;;;5026450;28;20061;-79
2023/04/30 08:48:00;;;;;;;10.65;8.48;;;16.30;99.90;;;;;;5023115;28;20049;-78
2023/04/30 08:50:27;;;;;;;12.45;7.75;;;16.40;99.90;;;;;;5013106;28;20045;-77
2023/04/30 08:52:54;;;;;;;10.77;7.82;;;16.50;99.90;;;;;;5025045;28;20042;-76
2023/04/30 08:55:20;;;;;;;8.82;7.40;;;16.60;99.90;;;;;;5025129;28;20416;-75
2023/04/30 08:57:47;;;;;;;9.73;7.82;;;16.60;99.90;;;;;;5027955;28;20048;-76
2023/04/30 09:00:14;;;;;;;8.50;6.95;;;16.70;99.90;;;;;;5029444;28;20046;-76
2023/04/30 09:02:41;;;;;;;8.10;6.35;;;16.80;99.90;;;;;;5028318;28;20050;-76
2023/04/30 09:05:13;;;;;;;9.77;7.00;;;16.90;99.90;;;;;;5028004;28;20463;-74
2023/04/30 09:07:42;;;;;;;9.52;7.20;;;16.90;99.90;;;;;;5025690;28;20068;-74
2023/04/30 09:10:21;;;;;;;8.15;7.13;;;16.90;99.90;;;;;;5028920;28;20052;-75
2023/04/30 09:13:05;;;;;;;7.50;6.45;;;17.00;99.90;;;;;;5028334;28;20505;-74
2023/04/30 09:15:34;;;;;;;9.30;5.93;;;17.10;99.90;;;;;;5027405;28;20045;-74
2023/04/30 09:18:10;;;;;;;9.30;6.78;;;17.20;99.90;;;;;;5008792;28;20045;-74
2023/04/30 09:20:52;;;;;;;9.57;5.82;;;17.30;99.90;;;;;;5028412;28;20509;-74
2023/04/30 09:23:19;;;;;;;6.07;5.47;;;17.40;99.90;;;;;;5010486;28;20497;-75
2023/04/30 09:25:46;;;;;;;6.80;4.88;;;17.50;99.90;;;;;;5028688;28;20148;-74
2023/04/30 09:28:13;;;;;;;5.30;4.80;;;17.60;99.90;;;;;;5018354;28;20049;-76
2023/04/30 09:30:40;;;;;;;6.20;4.53;;;17.70;99.90;;;;;;5004207;28;20045;-75
2023/04/30 09:33:08;;;;;;;5.90;3.70;;;17.80;99.90;;;;;;5027305;28;20049;-77
2023/04/30 09:35:40;;;;;;;4.47;3.42;;;17.90;99.90;;;;;;5032109;28;20045;-77
2023/04/30 09:38:23;;;;;;;2.78;2.35;;;18.00;99.90;;;;;;5015011;28;20517;-74
2023/04/30 09:40:50;;;;;;;2.00;1.50;;;18.00;99.90;;;;;;5031550;28;20045;-74
2023/04/30 09:43:16;;;;;;;1.45;1.35;;;18.00;99.90;;;;;;5031519;28;20052;-74
2023/04/30 09:45:51;;;;;;;1.52;1.42;;;18.10;99.90;;;;;;5025709;28;20038;-75
2023/04/30 09:48:24;;;;;;;3.88;1.50;;;18.20;99.90;;;;;;5030258;28;20046;-75
2023/04/30 09:50:51;;;;;;;3.25;1.52;;;18.20;99.90;;;;;;5020166;28;20107;-75
2023/04/30 09:53:18;;;;;;;2.63;1.38;;;18.00;99.90;;;;;;5012543;28;20417;-74
2023/04/30 09:55:47;;;;;;;2.55;1.58;;;18.00;99.90;;;;;;5029433;28;20132;-74
2023/04/30 09:58:15;;;;;;;1.60;1.23;;;18.00;99.90;;;;;;5032097;28;20051;-75
2023/04/30 10:00:44;;;;;;;1.60;1.50;;;18.00;99.90;;;;;;5027629;28;20046;-75
2023/04/30 10:03:12;;;;;;;1.80;1.58;;;18.10;99.90;;;;;;5028668;28;20061;-76
2023/04/30 10:05:47;;;;;;;1.15;1.05;;;18.10;99.90;;;;;;5033477;28;20500;-74
2023/04/30 10:08:16;;;;;;;1.77;1.45;;;18.20;99.90;;;;;;5032643;28;20064;-74
2023/04/30 10:10:46;;;;;;;2.03;1.37;;;18.30;99.90;;;;;;5035759;28;20520;-75
2023/04/30 10:13:18;;;;;;;3.60;1.20;;;18.30;99.90;;;;;;5029728;28;20055;-77
2023/04/30 10:15:50;;;;;;;1.55;1.35;;;18.30;99.90;;;;;;5031544;28;20056;-75
2023/04/30 10:18:27;;;;;;;2.90;1.20;;;18.30;99.90;;;;;;4997423;28;1057393;-74
2023/04/30 10:20:55;;;;;;;1.30;1.20;;;18.40;99.90;;;;;;5033283;28;20045;-75
2023/04/30 10:23:23;;;;;;;2.40;1.15;;;18.50;99.90;;;;;;5034122;28;20357;-74
2023/04/30 10:25:50;;;;;;;1.60;1.50;;;18.60;99.90;;;;;;5034225;28;20037;-75
2023/04/30 10:28:16;;;;;;;1.77;1.08;;;18.50;99.90;;;;;;5035922;28;20045;-76
2023/04/30 10:30:43;;;;;;;1.20;1.10;;;18.50;99.90;;;;;;5032374;28;20041;-74
2023/04/30 10:33:40;;;;;;;2.15;1.10;;;18.60;99.90;;;;;;5036023;28;20064;-75
2023/04/30 10:36:13;;;;;;;1.40;1.30;;;18.60;99.90;;;;;;5035627;28;20436;-75
2023/04/30 10:38:40;;;;;;;1.90;1.30;;;18.60;99.90;;;;;;5035889;28;20045;-75
2023/04/30 10:41:08;;;;;;;1.50;1.20;;;18.50;99.90;;;;;;5037226;28;20047;-76
2023/04/30 10:43:35;;;;;;;1.63;1.33;;;18.50;99.90;;;;;;5032755;28;20098;-75
2023/04/30 10:46:03;;;;;;;1.80;1.15;;;18.50;99.90;;;;;;5019033;28;20440;-75
2023/04/30 10:48:34;;;;;;;1.40;1.10;;;18.70;99.90;;;;;;5030320;28;20048;-75
2023/04/30 10:51:01;;;;;;;1.50;1.20;;;18.90;99.90;;;;;;5037153;28;20052;-75
2023/04/30 10:53:30;;;;;;;2.92;1.10;;;19.00;99.90;;;;;;5031911;28;20516;-75
2023/04/30 10:55:59;;;;;;;1.75;1.15;;;19.10;99.90;;;;;;5032856;28;20049;-74
2023/04/30 10:58:30;;;;;;;1.02;0.93;;;19.10;99.90;;;;;;5033875;28;20053;-74
2023/04/30 11:01:00;;;;;;;1.67;1.08;;;19.10;99.90;;;;;;5034395;28;20051;-75
2023/04/30 11:03:29;;;;;;;1.55;1.10;;;19.10;99.90;;;;;;5032842;28;20047;-75
2023/04/30 11:05:55;;;;;;;2.55;1.17;;;19.20;99.90;;;;;;5033637;28;20052;-75
2023/04/30 11:08:51;;;;;;;2.90;1.40;;;19.30;99.90;;;;;;5029506;28;20040;-74
2023/04/30 11:11:21;;;;;;;1.25;1.15;;;19.40;99.90;;;;;;5014959;28;20423;-74
2023/04/30 11:13:59;;;;;;;1.35;1.10;;;19.40;99.90;;;;;;5034779;28;20049;-75
2023/04/30 11:16:29;;;;;;;2.17;1.08;;;19.50;99.90;;;;;;5033058;28;20046;-75
2023/04/30 11:19:04;;;;;;;;;;;19.60;99.90;;;;;;5032260;28;20124;-74
2023/04/30 11:21:32;;;;;;;2.38;1.63;;;19.50;99.90;;;;;;5014040;28;19921;-75
2023/04/30 11:24:03;;;;;;;2.03;1.50;;;19.50;99.90;;;;;;5029110;28;20041;-76
2023/04/30 11:26:49;;;;;;;1.30;1.20;;;19.30;99.90;;;;;;5035282;28;20497;-76
2023/04/30 11:29:17;;;;;;;1.15;1.05;;;19.00;99.90;;;;;;5027378;28;20440;-75
2023/04/30 11:31:44;;;;;;;1.25;1.15;;;18.90;99.90;;;;;;5023508;28;20099;-76
2023/04/30 11:34:12;;;;;;;1.50;1.10;;;18.70;99.90;;;;;;5033001;28;20440;-75
2023/04/30 11:36:40;;;;;;;1.35;1.25;;;18.70;99.90;;;;;;5016111;28;20049;-76
2023/04/30 11:39:08;;;;;;;1.55;1.45;;;18.60;99.90;;;;;;5027221;28;20145;-76
2023/04/30 11:41:40;;;;;;;2.75;1.48;;;18.60;99.90;;;;;;5031366;28;20052;-76
2023/04/30 11:44:22;;;;;;;1.20;1.10;;;18.70;99.90;;;;;;5027405;28;20058;-76
2023/04/30 11:46:50;;;;;;;1.98;1.45;;;18.80;99.90;;;;;;5027016;28;20045;-75
2023/04/30 11:49:17;;;;;;;1.42;1.33;;;18.90;99.90;;;;;;5033686;28;20100;-78
2023/04/30 11:51:51;;;;;;;1.42;1.20;;;18.90;99.90;;;;;;5033630;28;20041;-75
2023/04/30 11:54:18;;;;;;;1.65;1.40;;;19.00;99.90;;;;;;5037654;28;20063;-75
2023/04/30 11:56:49;;;;;;;2.67;1.38;;;19.00;99.90;;;;;;5029029;28;20049;-75
2023/04/30 11:59:18;;;;;;;2.28;1.42;;;19.10;99.90;;;;;;5024813;28;20057;-76
2023/04/30 12:01:44;;;;;;;1.65;1.40;;;19.00;99.90;;;;;;5032023;28;20056;-76
2023/04/30 12:04:12;;;;;;;1.60;1.50;;;19.10;99.90;;;;;;5027356;28;20053;-74
2023/04/30 12:06:40;;;;;;;4.93;1.50;;;19.10;99.90;;;;;;5031829;28;20041;-76
2023/04/30 12:09:08;;;;;;;2.35;1.00;;;19.10;99.90;;;;;;5020110;28;20051;-76
2023/04/30 12:11:35;;;;;;;1.35;1.20;;;19.10;99.90;;;;;;5033257;28;20060;-75
2023/04/30 12:14:06;;;;;;;2.70;1.20;;;19.20;99.90;;;;;;5034899;28;20045;-75
2023/04/30 12:16:50;;;;;;;1.23;1.13;;;19.30;99.90;;;;;;5011353;28;20049;-76
2023/04/30 12:19:18;;;;;;;1.40;1.30;;;19.20;99.90;;;;;;5035397;28;20505;-76
2023/04/30 12:21:47;;;;;;;1.80;1.60;;;19.20;99.90;;;;;;5032424;28;20049;-77
2023/04/30 12:24:15;;;;;;;2.55;1.40;;;19.30;99.90;;;;;;5037941;28;20052;-76
2023/04/30 12:26:42;;;;;;;1.73;1.40;;;19.30;99.90;;;;;;5028620;28;20128;-76
2023/04/30 12:29:10;;;;;;;1.40;1.30;;;19.40;99.90;;;;;;5036546;28;20052;-76
2023/04/30 12:31:40;;;;;;;1.50;1.40;;;19.20;99.90;;;;;;5011637;28;20091;-75
2023/04/30 12:34:09;;;;;;;2.72;1.40;;;19.20;99.90;;;;;;5034727;28;20092;-74
2023/04/30 12:36:37;;;;;;;1.50;1.33;;;19.20;99.90;;;;;;5030169;28;20047;-75
2023/04/30 12:39:08;;;;;;;1.52;1.23;;;19.20;99.90;;;;;;5029685;28;20080;-76
2023/04/30 12:41:44;;;;;;;1.45;1.10;;;19.20;99.90;;;;;;5033538;28;20042;-76
2023/04/30 12:44:18;;;;;;;1.83;1.30;;;19.30;99.90;;;;;;5030893;28;20048;-76
2023/04/30 12:46:50;;;;;;;3.35;1.67;;;19.30;99.90;;;;;;5031482;28;20045;-76